Date,TemperatureHighF,TemperatureAvgF,TemperatureLowF,DewpointHighF,DewpointAvgF,DewpointLowF,HumidityHigh,HumidityAvg,HumidityLow,PressureMaxIn,PressureMinIn,WindSpeedMaxMPH,WindSpeedAvgMPH,GustSpeedMaxMPH,PrecipitationSumIn
2013-1-8,40,37,32,33,33,29,88,83,70,34.97,26.77,23,9,23,1.20
2013-1-9,43,41,32,33,28,26,88,56,54,30.88,0.00,8,5,8,0.01
2013-1-10,53,51,44,37,34,31,64,52,48,35.03,26.79,8,4,8,0.00
2013-1-11,59,58,51,55,53,37,92,85,56,35.31,26.63,9,4,9,0.04
2013-1-15,32,32,32,54,54,54,0,0,100,0.00,0.00,0,0,0,0.04
2013-1-16,32,32,32,54,54,54,0,0,100,0.00,0.00,0,0,0,0.04
2013-1-17,32,32,32,54,54,54,0,0,100,0.00,0.00,0,0,0,0.04
2013-1-22,32,32,32,54,54,54,0,0,100,0.00,40.00,0,0,0,0.00
2013-1-25,32,32,32,54,54,54,0,0,100,0.00,40.00,0,0,0,0.00
2013-1-26,32,32,32,54,54,54,0,0,100,0.00,0.00,0,0,0,0.04
2013-1-27,32,32,32,54,54,54,0,0,100,0.00,40.00,0,0,0,0.00
2013-1-29,51,51,51,43,42,42,72,72,72,29.87,26.86,11,6,11,1.19
2013-1-30,51,34,32,42,42,42,72,9,72,26.86,0.00,6,1,11,1.19
2013-1-31,32,32,32,42,42,42,0,0,100,0.00,0.00,0,0,0,1.19
2013-2-1,57,56,56,33,33,32,41,41,40,29.96,28.41,8,4,8,1.19
2013-2-2,55,55,32,50,49,33,81,80,80,34.83,0.00,4,4,4,0.00
2013-2-3,55,55,55,50,50,50,81,81,81,27.20,27.20,4,4,4,0.00
2013-2-4,32,32,32,50,50,50,0,0,100,0.00,40.00,0,0,0,0.00
2013-2-6,32,32,32,50,50,50,0,0,100,0.00,40.00,0,0,0,0.00
2013-2-7,32,32,32,50,50,50,0,0,100,0.00,0.00,0,0,0,0.00
2013-2-8,32,32,32,50,50,50,0,0,100,0.00,0.00,0,0,0,0.00
2013-2-10,56,55,54,43,42,42,64,63,62,33.60,26.72,8,7,8,1.52
2013-2-11,55,52,50,42,39,36,68,60,55,33.97,26.72,22,18,22,0.00
2013-2-12,32,32,32,39,39,39,0,0,100,0.00,0.00,0,0,0,0.00
2013-2-13,32,32,32,39,39,39,0,0,100,0.00,0.00,0,0,0,0.00
2013-2-14,32,32,32,39,39,39,0,0,100,0.00,40.00,0,0,0,0.00
2013-2-16,56,54,54,47,45,44,75,72,71,30.62,26.71,6,2,6,0.00
2013-2-17,54,54,54,45,45,45,71,71,71,26.88,26.88,2,2,4,0.00
2013-2-18,51,46,46,40,40,40,81,80,66,27.68,26.65,14,4,14,0.25
2013-2-19,32,32,32,40,40,40,0,0,100,0.00,0.00,0,0,0,0.25
2013-2-20,32,32,32,40,40,40,0,0,100,0.00,40.00,0,0,0,0.00
2013-2-21,56,56,56,46,46,45,68,68,68,27.39,26.87,2,2,2,0.25
2013-2-22,56,34,32,46,46,46,68,7,68,26.87,26.87,2,0,2,0.25
2013-2-23,60,60,60,51,51,50,72,72,71,30.05,26.68,2,0,2,1.06
2013-2-24,60,32,32,51,51,51,72,1,72,26.68,0.00,0,0,1,1.06
2013-3-5,55,54,54,43,42,42,66,64,62,27.70,26.93,17,11,17,1.06
2013-3-7,32,32,32,42,42,42,0,0,100,0.00,40.00,0,0,0,0.00
2013-3-8,59,44,32,55,48,42,89,41,89,27.76,0.00,5,2,5,1.06
2013-3-11,32,32,32,55,55,55,0,0,100,0.00,40.00,0,0,0,1.06
2013-3-12,32,32,32,55,55,55,0,0,100,0.00,40.00,0,0,0,0.00
2013-3-13,32,32,32,55,55,55,0,0,100,0.00,40.00,0,0,0,1.06
2013-3-14,32,32,32,55,55,55,0,0,100,0.00,0.00,0,0,0,1.06
2013-3-15,32,32,32,55,55,55,0,0,100,0.00,0.00,0,0,0,1.06
2013-3-20,32,32,32,55,55,55,0,0,100,0.00,40.00,0,0,0,0.00
2013-3-22,32,32,32,55,55,55,0,0,100,0.00,0.00,0,0,0,1.06
2013-3-23,32,32,32,55,55,55,0,0,100,0.00,0.00,0,0,0,1.06
2013-3-26,32,32,32,55,55,55,0,0,100,0.00,0.00,0,0,0,1.06
2013-3-27,32,32,32,55,55,55,0,0,100,0.00,40.00,0,0,0,0.00
2013-3-31,68,68,67,59,59,58,74,73,71,35.27,34.38,15,12,15,1.06
2013-4-1,72,64,32,58,48,40,89,45,32,35.31,0.00,28,7,28,0.00
2013-4-2,69,65,62,55,52,48,67,62,47,34.60,28.19,17,7,17,0.02
2013-4-3,69,66,60,57,49,44,73,56,43,33.45,26.65,31,14,31,0.02
2013-4-4,60,60,59,50,49,48,70,68,66,30.28,29.39,28,14,28,0.00
2013-4-6,71,69,69,53,51,49,56,52,49,35.38,26.60,5,2,5,0.09
2013-4-10,67,66,66,54,53,50,66,63,59,34.93,33.39,16,11,16,0.12
2013-4-13,68,41,32,54,51,50,64,15,55,35.25,26.65,6,1,6,0.05
2013-4-14,73,70,67,56,54,52,64,56,51,35.12,26.64,4,3,5,0.01
2013-4-15,66,62,58,48,45,40,64,53,42,34.99,28.69,27,13,27,0.01
2013-4-16,61,61,61,44,44,43,53,53,52,34.95,34.70,18,13,18,0.04
2013-4-17,78,63,32,44,32,29,37,31,25,34.90,28.85,30,8,30,0.07
2013-4-18,66,62,59,35,31,28,39,31,26,34.99,28.85,35,15,35,0.02
2013-4-23,73,71,68,53,51,50,58,50,47,28.65,27.09,11,7,11,0.02
2013-4-26,73,48,32,53,50,44,38,15,38,31.83,28.23,3,1,3,0.00
2013-5-8,70,68,68,58,57,56,69,68,66,34.97,28.78,11,4,11,0.05
2013-5-9,73,69,32,60,57,55,71,63,59,35.22,26.63,25,11,25,0.00
2013-5-10,67,44,32,56,56,55,70,24,68,29.80,0.00,13,2,13,0.00
2013-5-11,76,72,32,60,57,55,62,58,53,34.21,0.00,21,12,21,0.08
2013-5-12,78,74,70,62,60,57,68,60,52,34.61,26.59,22,9,22,0.00
2013-5-13,32,32,32,60,60,60,0,0,100,0.00,0.00,0,0,0,0.00
2013-5-14,32,32,32,60,60,60,0,0,100,0.00,0.00,0,0,0,0.00
2013-5-15,76,76,75,56,55,54,50,48,48,27.50,26.62,18,16,18,0.13
2013-5-16,32,32,32,54,54,54,0,0,100,0.00,40.00,0,0,0,0.13
2013-5-18,79,72,32,63,61,54,59,50,58,34.78,30.50,4,2,4,0.13
2013-5-27,72,72,69,47,45,44,42,38,37,34.89,26.69,8,5,8,0.01
2013-5-28,74,72,71,64,61,49,76,69,44,34.99,26.58,15,6,15,0.00
2013-5-29,75,36,32,53,52,50,45,4,41,34.95,0.00,10,0,12,0.00
2013-5-30,32,32,32,52,52,52,0,0,100,0.00,0.00,0,0,0,0.00
2013-5-31,32,32,32,52,52,52,0,0,100,0.00,40.00,0,0,0,0.00
2013-6-1,69,68,68,59,59,58,72,71,70,31.23,28.22,4,2,4,0.00
2013-6-2,72,71,68,59,56,53,71,60,54,34.88,26.59,19,10,19,0.05
2013-6-3,69,69,68,55,55,54,61,61,59,31.77,31.03,9,7,13,0.00
2013-6-5,74,74,73,57,57,56,56,56,55,34.92,33.28,12,11,12,0.07
2013-6-9,32,32,32,57,57,57,0,0,100,0.00,0.00,0,0,0,0.07
2013-6-10,32,32,32,57,57,57,0,0,100,0.00,0.00,0,0,0,0.07
2013-6-11,32,32,32,57,57,57,0,0,100,0.00,0.00,0,0,0,0.07
2013-6-12,32,32,32,57,57,57,0,0,100,0.00,0.00,0,0,0,0.07
2013-6-13,70,36,32,62,58,57,76,8,75,34.88,0.00,10,1,10,0.07
2013-6-14,69,69,69,61,61,61,76,76,76,35.38,35.38,9,9,10,0.07
2013-6-16,32,32,32,61,61,61,0,0,100,0.00,40.00,0,0,0,0.00
2013-6-17,85,72,32,61,58,56,41,31,38,27.79,0.00,11,3,11,0.07
2013-6-18,91,76,32,64,60,56,49,32,35,34.92,0.00,30,11,30,0.01
2013-6-19,84,84,83,63,62,61,49,48,47,35.25,34.88,16,11,17,0.00
2013-6-20,32,32,32,61,61,61,0,0,100,0.00,40.00,0,0,0,0.00
2013-6-25,32,32,32,61,61,61,0,0,100,0.00,40.00,0,0,0,0.00
2013-6-26,89,65,32,73,66,61,72,38,42,34.80,0.00,13,4,13,0.15
2013-6-27,82,60,32,70,68,66,72,39,60,34.08,26.65,8,3,8,0.00
2013-6-29,83,52,32,67,66,65,58,23,56,34.80,0.00,15,5,15,0.00
2013-7-7,88,72,32,66,64,60,47,33,44,34.91,0.00,24,9,24,0.00
2013-7-8,92,67,32,61,60,58,47,23,33,34.99,0.00,24,6,24,0.00
2013-7-9,92,54,32,63,60,59,44,16,37,34.83,0.00,18,3,18,0.00
2013-7-10,84,83,82,64,63,62,52,51,51,35.29,26.59,14,7,14,0.00
2013-7-11,90,86,81,68,63,61,64,46,38,34.97,26.86,11,6,11,0.00
2013-7-12,92,84,81,70,65,51,66,54,31,34.99,26.61,11,4,11,0.00
2013-7-13,89,87,84,64,63,62,48,45,44,34.85,27.02,12,8,12,0.00
2013-7-23,82,65,32,64,54,49,34,22,33,27.37,0.00,14,6,14,0.00
2013-7-24,94,90,85,53,52,51,33,28,24,34.85,26.69,14,7,14,0.00
2013-7-25,88,84,32,54,53,53,33,30,31,35.22,0.00,7,4,7,0.00
2013-8-8,86,86,85,59,59,58,41,41,40,34.64,27.06,16,9,16,0.13
2013-8-9,85,85,84,62,62,62,48,47,47,34.77,33.53,19,15,19,0.00
2013-8-11,90,90,89,55,53,53,30,29,29,34.88,28.56,22,14,22,0.00
2013-8-12,32,32,32,53,53,53,0,0,100,0.00,40.00,0,0,0,0.00
2013-8-23,88,67,32,54,53,52,33,21,31,34.92,0.00,17,9,17,0.04
2013-8-24,86,80,32,61,57,53,49,41,33,35.40,0.00,16,6,16,0.04
2013-8-25,82,56,32,63,59,56,53,24,41,34.83,0.00,4,1,6,0.00
2013-8-26,90,85,82,70,69,61,62,59,39,35.32,27.81,11,6,11,0.00
2013-8-27,88,81,32,62,60,57,42,37,37,29.94,0.00,10,3,10,0.00
2013-8-28,90,73,32,67,64,60,54,34,43,34.99,0.00,9,4,9,0.00
2013-8-29,87,86,84,70,69,66,57,56,56,34.88,26.79,17,8,17,0.00
2013-8-30,90,89,85,68,62,60,54,40,38,34.95,26.62,13,3,13,0.00
2013-8-31,83,81,79,61,59,55,50,47,43,33.60,26.67,23,11,23,0.00
2013-9-1,81,49,32,55,53,48,44,13,33,34.97,0.00,16,3,16,0.00
2013-9-2,88,83,79,63,57,48,54,41,27,34.91,26.77,19,6,19,0.00
2013-9-3,87,82,78,68,65,60,67,57,44,34.11,26.58,19,9,19,0.00
2013-9-4,79,79,78,66,64,63,66,62,58,31.98,29.47,4,2,5,0.00
2013-9-6,32,32,32,64,64,64,0,0,100,0.00,0.00,0,0,0,0.00
2013-9-7,32,32,32,64,64,64,0,0,100,0.00,0.00,0,0,0,0.00
2013-9-8,87,83,79,63,57,18,44,41,10,32.31,26.61,24,12,24,0.00
2013-9-9,82,80,80,56,55,54,43,42,40,34.83,26.95,21,13,24,0.00
2013-9-12,86,83,81,71,64,62,62,53,49,34.96,29.73,10,3,10,0.00
2013-9-13,86,64,32,73,68,67,68,39,55,35.34,0.00,13,3,13,0.00
2013-9-14,32,32,32,72,72,72,0,0,100,0.00,0.00,0,0,0,0.00
2013-9-15,81,74,32,72,44,39,24,21,24,34.77,0.00,14,7,14,0.00
2013-9-16,77,76,74,64,64,63,68,65,65,34.94,28.94,11,2,11,0.00
2013-9-17,78,78,77,62,61,61,57,57,57,31.54,30.31,21,12,21,0.00
2013-9-18,78,77,76,63,62,61,62,60,57,31.81,29.68,21,11,21,0.00
2013-9-20,77,55,32,66,64,63,68,35,67,34.80,0.00,2,1,2,0.00
2013-9-21,76,46,32,65,65,65,67,21,67,35.29,34.68,2,1,2,0.00
2013-9-25,78,78,76,62,62,61,59,58,58,34.94,30.14,7,5,7,0.00
2013-9-26,75,75,71,68,64,64,84,70,67,34.92,26.59,4,3,4,0.00
2013-9-27,84,78,75,66,63,56,69,59,40,35.42,29.69,16,6,16,0.00
2013-9-28,82,77,32,68,64,62,73,62,55,35.36,29.70,14,6,14,0.00
2013-9-29,82,77,32,68,66,61,76,64,53,34.93,29.68,15,5,15,0.00
2013-9-30,75,36,32,64,64,64,67,6,67,35.43,0.00,0,0,0,0.00
2013-10-1,78,47,32,69,67,64,80,25,70,34.99,0.00,12,2,12,0.19
2013-10-2,74,46,32,68,58,56,80,24,57,34.99,0.00,12,2,12,0.22
2013-10-3,65,62,32,58,53,52,80,61,64,27.87,0.00,11,10,11,0.09
2013-10-4,65,42,32,52,52,52,64,20,64,26.60,26.60,11,4,11,0.09
2013-10-9,70,66,62,55,53,51,68,63,55,34.71,27.62,4,2,4,0.09
2013-10-13,75,70,32,63,61,53,68,61,66,30.01,26.59,4,2,4,0.09
2013-10-14,73,72,72,62,61,60,68,68,67,30.14,28.86,4,2,4,0.00
2013-10-15,74,72,70,68,65,61,84,80,72,34.89,26.70,4,1,4,0.00
2013-10-16,73,34,32,67,67,66,82,4,81,31.11,0.00,11,0,11,0.00
2013-10-17,71,55,32,67,56,49,62,42,48,32.70,0.00,41,11,41,0.18
2013-10-18,65,49,32,52,52,51,62,32,62,27.11,27.11,16,8,24,0.18
2013-10-19,72,71,71,49,49,48,45,45,45,34.55,32.63,14,9,14,0.18
2013-10-22,69,68,68,58,57,56,70,68,68,34.78,29.70,5,4,5,0.00
2013-10-23,80,75,67,59,56,52,74,52,44,34.99,26.73,19,6,19,0.00
2013-10-24,76,70,32,57,53,52,48,41,46,28.28,0.00,20,16,20,0.00
2013-10-26,75,70,32,50,46,46,45,35,36,33.72,26.73,15,4,15,0.00
2013-10-27,75,57,32,50,48,42,44,25,33,34.94,0.00,10,3,10,0.00
2013-10-28,72,68,65,61,59,56,79,73,59,34.88,31.57,9,4,9,0.00
2013-10-29,67,66,64,59,59,57,77,76,76,35.39,35.39,4,3,4,0.00
2013-10-31,32,32,32,57,57,57,0,0,100,0.00,0.00,0,0,0,0.00
2013-11-1,32,32,32,57,57,57,0,0,100,0.00,0.00,0,0,0,0.00
2013-11-3,32,32,32,57,57,57,0,0,100,0.00,0.00,0,0,0,0.00
2013-11-4,70,45,32,63,59,57,82,28,77,34.70,0.00,10,1,10,0.01
2013-11-5,68,36,32,62,60,60,83,9,80,34.96,33.94,5,0,5,0.00
2013-11-6,32,32,32,60,60,60,0,0,100,0.00,0.00,0,0,0,0.00
2013-11-7,64,33,32,60,59,59,85,2,85,30.79,0.00,6,0,6,0.73
2013-11-8,70,55,32,59,53,48,55,34,50,33.50,0.00,8,3,8,0.73
2013-11-9,32,32,32,52,52,52,0,0,100,0.00,0.00,0,0,0,0.73
2013-11-10,32,32,32,52,52,52,0,0,100,0.00,0.00,0,0,0,0.73
2013-11-11,32,32,32,52,52,52,0,0,100,0.00,0.00,0,0,0,0.73
2013-11-12,32,32,32,52,52,52,0,0,100,0.00,0.00,0,0,0,0.73
2013-11-13,65,33,32,55,54,52,69,2,69,30.85,0.00,3,0,3,0.73
2013-11-14,32,32,32,55,55,55,0,0,100,0.00,0.00,0,0,0,0.73
2013-11-15,60,36,32,55,54,53,81,13,80,34.76,0.00,17,2,17,0.73
2013-11-16,62,61,58,52,51,48,71,70,68,35.04,26.69,27,13,27,0.00
2013-11-17,62,57,32,49,46,44,70,58,55,34.90,0.00,18,6,18,0.00
2013-11-18,58,37,32,48,46,45,70,15,70,34.90,0.00,11,1,11,0.00
2013-11-19,58,58,56,50,50,48,77,75,70,35.42,29.70,6,3,11,0.00
2013-11-20,63,61,58,62,61,50,99,97,76,35.40,32.01,9,4,9,0.30
2013-11-21,62,62,62,61,61,61,99,99,99,35.22,35.22,4,4,6,0.30
2013-11-22,63,63,63,57,56,56,79,79,79,34.87,33.45,8,4,8,0.30
2013-11-23,67,57,32,58,55,52,85,52,63,34.90,0.00,19,5,19,0.30
2013-11-24,66,56,32,60,55,52,87,60,63,34.97,0.00,24,5,24,0.45
2013-11-25,68,62,60,54,52,50,75,70,60,35.35,29.38,16,4,16,0.00
2013-11-26,60,60,60,51,51,51,72,72,72,0.00,40.00,3,2,3,0.00
2013-11-27,55,33,32,51,51,43,67,3,65,0.00,0.00,2,0,2,0.02
2013-11-28,60,56,52,44,40,38,70,55,45,34.97,29.70,13,6,13,0.00
2013-11-29,54,54,54,39,39,39,57,57,57,34.84,34.84,4,4,8,0.00
2013-11-30,60,53,32,50,47,39,74,57,68,34.93,29.76,15,4,15,0.00
2013-12-1,59,59,59,49,49,49,69,69,69,0.00,40.00,7,7,15,0.00
2013-12-3,71,49,47,41,39,38,76,69,65,34.96,29.73,43,21,43,4.98
2013-12-7,57,56,56,47,46,46,70,67,67,31.24,26.70,14,11,14,0.14
2013-12-8,32,32,32,46,46,46,0,0,100,0.00,0.00,0,0,0,0.14
2013-12-9,32,32,32,46,46,46,0,0,100,0.00,0.00,0,0,0,0.14
2013-12-10,48,47,47,40,38,32,76,70,57,34.91,29.86,30,16,30,0.14
2013-12-11,47,44,32,32,26,25,57,50,49,34.75,0.00,32,29,32,0.12
2013-12-12,52,49,43,29,26,20,50,41,31,34.16,26.67,32,6,32,0.24
2013-12-13,32,32,32,29,29,29,0,0,100,0.00,0.00,0,0,0,0.24
2013-12-14,32,32,32,29,29,29,0,0,100,0.00,0.00,0,0,0,0.24
2013-12-16,32,32,32,29,29,29,0,0,100,0.00,0.00,0,0,0,0.24
2013-12-17,32,32,32,29,29,29,0,0,100,0.00,0.00,0,0,0,0.24
2013-12-18,50,43,32,41,36,29,71,44,71,27.15,26.62,10,5,11,0.24
2013-12-19,53,48,32,42,41,41,71,52,65,27.04,0.00,10,6,10,0.24
2013-12-20,55,51,32,41,38,37,65,44,51,34.83,0.00,8,4,8,0.00
2013-12-22,32,32,32,37,37,37,0,0,100,0.00,40.00,0,0,0,0.00
2013-12-23,56,52,32,42,41,37,61,51,55,28.99,0.00,8,6,8,0.01
2013-12-24,55,55,55,42,42,42,61,61,61,26.59,26.59,7,7,7,0.01
2013-12-27,32,32,32,42,42,42,0,0,100,0.00,0.00,0,0,0,0.01
2013-12-28,32,32,32,42,42,42,0,0,100,0.00,0.00,0,0,0,0.01
2013-12-29,32,32,32,42,42,42,0,0,100,0.00,0.00,0,0,0,0.01
2014-1-2,32,32,32,42,42,42,0,0,100,0.00,0.00,0,0,0,0.01